Time;durP1;ratioP1;P1;durP2;ratioP2;P2;SDS_P1;SDS_P2;PMS_P1;PMS_P2;Temp;Humidity;BMP_temperature;BMP_pressure;BME280_temperature;BME280_humidity;BME280_pressure;Samples;Min_cycle;Max_cycle;Signal;HPM_P1;HPM_P2
2021/12/16 00:02:27;;;;;;;79.05;41.22;;;;;;;7.49;100.00;103251.22;5088743;28;20110;-90
2021/12/16 00:07:58;;;;;;;73.07;39.10;;;;;;;7.46;100.00;103247.69;5049509;28;20040;-89
2021/12/16 00:10:40;;;;;;;76.63;39.88;;;;;;;7.51;100.00;103250.34;5046096;28;20062;-90
2021/12/16 00:29:59;;;;;;;78.75;41.22;;;;;;;7.49;100.00;103248.56;5045669;28;20040;-89
2021/12/16 00:35:07;;;;;;;76.68;40.40;;;;;;;7.48;100.00;103252.13;5043706;28;20067;-89
2021/12/16 00:37:32;;;;;;;78.70;40.30;;;;;;;7.48;100.00;103252.13;5052584;28;20107;-90
2021/12/16 00:39:57;;;;;;;73.07;39.67;;;;;;;7.47;100.00;103241.50;5044855;28;20437;-89
2021/12/16 00:42:39;;;;;;;74.97;39.92;;;;;;;7.54;100.00;103258.28;5045012;28;20025;-89
2021/12/16 00:48:03;;;;;;;76.15;39.58;;;;;;;7.51;100.00;103255.63;5088131;28;20086;-89
2021/12/16 00:55:48;;;;;;;73.80;39.90;;;;;;;7.48;100.00;103254.75;5088124;28;20495;-89
2021/12/16 00:58:17;;;;;;;74.25;39.90;;;;;;;7.51;100.00;103266.22;5088753;28;20023;-88
2021/12/16 01:00:50;;;;;;;75.63;39.85;;;;;;;7.45;100.00;103262.72;5053354;28;1021878;-88
2021/12/16 01:06:25;;;;;;;75.78;37.63;;;;;;;7.46;100.00;103264.47;5102919;28;19926;-89
2021/12/16 01:08:48;;;;;;;74.15;39.63;;;;;;;7.52;100.00;103262.69;5105576;28;20051;-88
2021/12/16 01:36:16;;;;;;;73.80;39.53;;;;;;;7.48;100.00;103267.09;5096346;28;20152;-90
2021/12/16 01:49:59;;;;;;;76.05;39.90;;;;;;;7.49;100.00;103283.03;5108572;28;20085;-90
2021/12/16 01:52:47;;;;;;;71.70;39.58;;;;;;;7.41;100.00;103282.13;5108461;28;20016;-90
2021/12/16 01:55:29;;;;;;;69.63;39.60;;;;;;;7.46;100.00;103285.66;5103644;28;20083;-89
2021/12/16 01:58:10;;;;;;;78.93;39.85;;;;;;;7.46;100.00;103292.72;5094019;28;20078;-90
2021/12/16 02:00:53;;;;;;;70.78;38.88;;;;;;;7.48;100.00;103291.88;5092057;28;20103;-90
2021/12/16 02:03:25;;;;;;;73.47;39.90;;;;;;;7.49;100.00;103295.41;5091879;28;20024;-90
2021/12/16 02:08:20;;;;;;;73.60;40.33;;;;;;;7.43;100.00;103283.00;5092208;28;20132;-90
2021/12/16 02:11:00;;;;;;;76.60;39.58;;;;;;;7.42;100.00;103285.66;5090727;28;20149;-90
2021/12/16 02:13:42;;;;;;;69.95;39.88;;;;;;;7.47;100.00;103299.78;5090478;28;20492;-90
2021/12/16 02:37:15;;;;;;;71.20;39.35;;;;;;;7.37;100.00;103296.25;5090546;28;20028;-89
2021/12/16 02:39:42;;;;;;;;;;;;;;;7.49;100.00;103309.53;5101020;28;20020;-90
2021/12/16 02:42:17;;;;;;;71.22;38.95;;;;;;;7.45;100.00;103309.53;5090583;28;19919;-91
2021/12/16 02:49:59;;;;;;;67.70;38.10;;;;;;;7.39;100.00;103309.50;5095182;28;20404;-89
2021/12/16 02:52:27;;;;;;;74.00;37.95;;;;;;;7.42;100.00;103314.81;5111264;28;20024;-89
2021/12/16 02:54:53;;;;;;;69.75;38.58;;;;;;;7.39;100.00;103307.72;5090813;28;20119;-89
2021/12/16 02:57:21;;;;;;;72.32;39.30;;;;;;;7.44;100.00;103321.88;5110790;28;20024;-89
2021/12/16 02:59:48;;;;;;;70.15;39.40;;;;;;;7.42;100.00;103315.69;5091771;28;20373;-89
2021/12/16 03:02:17;;;;;;;69.97;38.83;;;;;;;7.45;100.00;103325.41;5110023;28;20404;-88
2021/12/16 03:04:46;;;;;;;74.00;39.20;;;;;;;7.46;100.00;103328.06;5088960;28;20031;-88
2021/12/16 03:07:13;;;;;;;69.18;39.65;;;;;;;7.44;100.00;103319.25;5090306;28;20059;-88
2021/12/16 03:12:47;;;;;;;75.22;38.97;;;;;;;7.44;100.00;103315.69;5091213;28;20028;-89
2021/12/16 03:15:35;;;;;;;70.93;38.95;;;;;;;7.42;100.00;103313.03;5093943;28;20024;-89
2021/12/16 03:18:13;;;;;;;64.80;37.83;;;;;;;7.45;100.00;103314.81;5089638;28;20025;-89
2021/12/16 03:23:30;;;;;;;72.60;38.28;;;;;;;7.46;100.00;103317.47;5102970;28;20039;-89
2021/12/16 03:26:56;;;;;;;69.50;37.92;;;;;;;7.37;100.00;103296.25;5089860;28;20043;-89
2021/12/16 03:32:06;;;;;;;71.25;38.00;;;;;;;7.44;100.00;103313.94;5089661;28;20477;-89
2021/12/16 03:37:01;;;;;;;71.72;38.72;;;;;;;7.44;100.00;103319.25;5092535;28;20122;-89
2021/12/16 03:39:31;;;;;;;67.10;37.75;;;;;;;7.41;100.00;103319.22;5110478;28;20019;-89
2021/12/16 03:41:58;;;;;;;72.55;39.85;;;;;;;7.37;100.00;103311.28;5110124;28;20075;-89
2021/12/16 03:44:37;;;;;;;69.90;39.20;;;;;;;7.42;100.00;103322.75;5091883;28;20115;-89
2021/12/16 03:47:03;;;;;;;66.18;38.63;;;;;;;7.43;100.00;103324.50;5100877;28;20058;-89
2021/12/16 03:49:30;;;;;;;70.47;40.75;;;;;;;7.43;100.00;103314.78;5091538;28;20484;-90
2021/12/16 03:52:06;;;;;;;72.43;39.17;;;;;;;7.38;100.00;103318.34;5108895;28;20076;-87
2021/12/16 03:54:35;;;;;;;68.93;38.70;;;;;;;7.41;100.00;103324.53;5103046;27;20488;-89
2021/12/16 03:57:08;;;;;;;71.07;38.67;;;;;;;7.36;100.00;103325.41;5094689;28;20040;-89
2021/12/16 03:59:35;;;;;;;69.03;39.43;;;;;;;7.39;100.00;103336.88;5089239;28;20073;-89
2021/12/16 04:02:05;;;;;;;66.55;38.00;;;;;;;7.38;100.00;103334.22;5079685;28;20517;-88
2021/12/16 04:04:30;;;;;;;70.25;39.55;;;;;;;7.37;100.00;103343.06;5087899;28;20127;-89
2021/12/16 04:06:56;;;;;;;69.10;38.13;;;;;;;7.37;100.00;103335.13;5086217;28;20103;-89
2021/12/16 04:09:22;;;;;;;72.68;39.97;;;;;;;7.35;100.00;103335.09;5087805;28;20035;-89
2021/12/16 04:11:55;;;;;;;75.13;41.58;;;;;;;7.36;100.00;103341.31;5089491;28;20421;-89
2021/12/16 04:14:20;;;;;;;76.43;41.35;;;;;;;7.29;100.00;103332.44;5088864;28;20059;-89
2021/12/16 04:16:53;;;;;;;72.70;39.95;;;;;;;7.31;100.00;103332.44;5084834;28;20426;-88
2021/12/16 04:19:23;;;;;;;73.80;42.40;;;;;;;7.34;100.00;103340.41;5088473;28;20028;-88
2021/12/16 04:21:57;;;;;;;74.10;39.30;;;;;;;7.29;100.00;103340.38;5089126;28;20032;-88
2021/12/16 04:24:23;;;;;;;70.03;39.80;;;;;;;7.26;100.00;103335.06;5086300;28;20035;-89
2021/12/16 04:26:54;;;;;;;78.82;41.40;;;;;;;7.30;100.00;103344.81;5086554;28;20028;-89
2021/12/16 04:29:22;;;;;;;73.45;39.08;;;;;;;7.26;100.00;103335.06;5087031;28;20035;-88
2021/12/16 04:31:47;;;;;;;69.93;39.25;;;;;;;7.18;100.00;103336.81;5078846;28;20020;-89
2021/12/16 04:34:13;;;;;;;72.90;41.08;;;;;;;7.12;100.00;103334.16;5068031;28;20039;-90
2021/12/16 04:36:39;;;;;;;77.72;40.72;;;;;;;7.12;100.00;103342.09;5078728;28;20056;-89
2021/12/16 04:39:09;;;;;;;75.45;40.67;;;;;;;7.13;100.00;103334.16;5087941;28;20541;-87
2021/12/16 04:41:35;;;;;;;72.10;39.85;;;;;;;7.15;100.00;103337.72;5089276;28;20023;-89
2021/12/16 04:44:03;;;;;;;76.28;42.15;;;;;;;7.18;100.00;103331.53;5087057;28;20400;-88
2021/12/16 04:46:29;;;;;;;80.88;41.65;;;;;;;7.12;100.00;103324.44;5086017;28;20081;-88
2021/12/16 04:48:58;;;;;;;74.22;40.70;;;;;;;7.09;100.00;103323.56;5088373;28;20059;-89
2021/12/16 04:51:26;;;;;;;74.15;41.30;;;;;;;7.09;100.00;103328.84;5087631;28;20024;-89
2021/12/16 04:53:52;;;;;;;74.53;40.90;;;;;;;7.05;100.00;103329.72;5088574;28;20024;-89
2021/12/16 04:56:18;;;;;;;80.50;40.50;;;;;;;6.97;100.00;103330.56;5085276;28;20093;-89
2021/12/16 04:58:47;;;;;;;72.43;41.45;;;;;;;6.89;100.00;103331.41;5086455;28;20031;-90
2021/12/16 05:01:14;;;;;;;74.75;41.53;;;;;;;6.88;100.00;103338.47;5087929;28;20047;-89
2021/12/16 05:03:39;;;;;;;79.75;40.20;;;;;;;6.81;100.00;103320.78;5088592;28;20089;-89
2021/12/16 05:06:09;;;;;;;71.90;39.83;;;;;;;6.74;100.00;103324.31;5094653;28;20031;-89
2021/12/16 05:08:34;;;;;;;72.25;40.05;;;;;;;6.71;100.00;103337.50;5108410;28;20031;-90
2021/12/16 05:11:03;;;;;;;76.57;40.22;;;;;;;6.68;100.00;103333.06;5108410;28;20025;-90
2021/12/16 05:13:30;;;;;;;78.72;43.55;;;;;;;6.61;100.00;103323.38;5108319;28;20027;-89
2021/12/16 05:16:00;;;;;;;78.20;41.20;;;;;;;6.62;100.00;103329.53;5092165;28;20460;-88
2021/12/16 05:18:31;;;;;;;82.40;42.20;;;;;;;6.65;100.00;103333.09;5103557;28;20034;-89
2021/12/16 05:20:59;;;;;;;77.50;41.92;;;;;;;6.62;100.00;103337.47;5108501;28;20720;-89
2021/12/16 05:28:43;;;;;;;77.03;40.60;;;;;;;6.39;100.00;103353.19;5107676;28;20032;-89
2021/12/16 05:31:10;;;;;;;77.57;41.22;;;;;;;6.32;100.00;103346.13;5103767;28;20032;-90
2021/12/16 05:33:35;;;;;;;82.55;42.90;;;;;;;6.29;100.00;103357.53;5108049;28;20102;-90
2021/12/16 05:36:01;;;;;;;76.10;42.65;;;;;;;6.21;100.00;103343.38;5098149;28;20383;-89
2021/12/16 05:38:28;;;;;;;85.95;43.38;;;;;;;6.21;100.00;103359.25;5089173;28;20027;-90
2021/12/16 05:40:55;;;;;;;79.78;42.83;;;;;;;6.17;100.00;103362.75;5086549;28;20122;-90
2021/12/16 05:43:23;;;;;;;88.60;45.38;;;;;;;6.19;100.00;103367.19;5087679;28;20364;-89
2021/12/16 05:45:51;;;;;;;90.50;46.53;;;;;;;6.17;100.00;103366.28;5092129;28;20038;-90
2021/12/16 05:48:22;;;;;;;94.82;45.78;;;;;;;6.15;100.00;103364.50;5095399;28;20066;-89
2021/12/16 05:50:54;;;;;;;87.35;45.20;;;;;;;6.10;100.00;103368.84;5108288;28;20028;-89
2021/12/16 05:53:21;;;;;;;79.93;42.70;;;;;;;5.99;100.00;103361.72;5108184;28;20624;-89
2021/12/16 05:55:46;;;;;;;92.28;45.80;;;;;;;5.99;100.00;103372.31;5100400;28;20031;-89
2021/12/16 05:58:17;;;;;;;84.05;43.25;;;;;;;5.99;100.00;103379.34;5088959;28;20072;-88
2021/12/16 06:00:43;;;;;;;86.00;44.00;;;;;;;5.92;100.00;103377.50;5087088;28;20031;-89
2021/12/16 06:03:09;;;;;;;89.97;43.53;;;;;;;5.95;100.00;103385.47;5106039;28;20551;-88
2021/12/16 06:05:34;;;;;;;90.30;44.65;;;;;;;5.90;100.00;103385.41;5092004;28;20053;-89
2021/12/16 06:08:00;;;;;;;93.53;44.95;;;;;;;5.92;100.00;103396.03;5107408;28;20372;-90
2021/12/16 06:13:10;;;;;;;87.05;45.92;;;;;;;5.93;100.00;103393.38;5108077;28;20122;-90
2021/12/16 06:26:51;;;;;;;72.22;38.50;;;;;;;5.62;100.00;103392.19;5090052;28;20124;-90
2021/12/16 06:29:17;;;;;;;76.47;40.53;;;;;;;5.57;100.00;103401.81;5077935;28;20392;-89
2021/12/16 06:31:43;;;;;;;73.47;38.63;;;;;;;5.45;100.00;103407.84;5087777;28;20035;-89
2021/12/16 06:34:09;;;;;;;73.93;40.58;;;;;;;5.37;100.00;103395.41;5087249;28;20495;-89
2021/12/16 06:36:34;;;;;;;77.57;41.25;;;;;;;5.34;100.00;103396.25;5087107;28;20050;-89
2021/12/16 06:39:00;;;;;;;72.72;39.72;;;;;;;5.30;100.00;103412.94;5086795;28;20024;-89
2021/12/16 06:41:28;;;;;;;70.50;37.47;;;;;;;5.19;100.00;103396.97;5088499;28;20028;-89
2021/12/16 06:43:55;;;;;;;73.63;40.05;;;;;;;5.21;100.00;103408.44;5088032;28;20036;-88
2021/12/16 06:46:29;;;;;;;79.22;42.47;;;;;;;5.09;100.00;103396.84;5102585;28;20027;-90
2021/12/16 06:48:58;;;;;;;73.75;39.70;;;;;;;5.10;100.00;103407.44;5111407;28;20494;-90
2021/12/16 06:51:35;;;;;;;73.82;39.33;;;;;;;5.08;100.00;103416.19;5100565;28;20028;-89
2021/12/16 06:54:07;;;;;;;72.40;39.67;;;;;;;5.02;100.00;103416.09;5071350;28;20036;-89
2021/12/16 06:56:42;;;;;;;76.00;39.53;;;;;;;4.98;100.00;103416.06;5074054;28;20040;-92
2021/12/16 06:59:19;;;;;;;71.72;37.92;;;;;;;4.94;100.00;103427.44;5091656;28;20028;-89
2021/12/16 07:01:49;;;;;;;73.63;39.13;;;;;;;4.90;100.00;103420.34;5102312;28;20036;-89
2021/12/16 07:04:18;;;;;;;73.15;39.13;;;;;;;4.87;100.00;103427.34;5100633;28;20031;-88
2021/12/16 07:06:43;;;;;;;67.20;37.25;;;;;;;4.85;100.00;103434.31;5101205;28;20024;-88
2021/12/16 07:09:16;;;;;;;73.90;39.80;;;;;;;4.84;100.00;103422.00;5103230;28;20049;-89
2021/12/16 07:11:49;;;;;;;70.68;39.15;;;;;;;4.74;100.00;103421.00;5101923;28;20369;-89
2021/12/16 07:14:16;;;;;;;73.05;39.03;;;;;;;4.70;100.00;103421.81;5102945;28;20024;-88
2021/12/16 07:16:51;;;;;;;70.25;36.30;;;;;;;4.73;100.00;103433.31;5097782;28;20503;-89
2021/12/16 07:19:17;;;;;;;69.38;37.47;;;;;;;4.71;100.00;103444.69;5081788;28;20039;-88
2021/12/16 07:21:43;;;;;;;89.32;45.67;;;;;;;4.78;100.00;103449.19;5102396;28;20039;-90
2021/12/16 07:24:17;;;;;;;74.88;40.35;;;;;;;4.79;100.00;103450.97;5101336;28;20119;-88
2021/12/16 07:26:43;;;;;;;81.03;42.03;;;;;;;4.73;100.00;103456.16;5100863;28;20403;-89
2021/12/16 07:29:09;;;;;;;73.88;39.53;;;;;;;4.71;100.00;103463.16;5102028;28;20035;-89
2021/12/16 07:31:37;;;;;;;82.53;42.88;;;;;;;4.73;100.00;103464.97;5100616;28;20376;-89
2021/12/16 07:34:03;;;;;;;83.55;40.92;;;;;;;4.74;100.00;103465.84;5101374;28;20039;-90
2021/12/16 07:36:30;;;;;;;83.60;42.28;;;;;;;4.72;100.00;103475.47;5104324;28;20028;-89
2021/12/16 07:38:55;;;;;;;90.65;46.33;;;;;;;4.75;100.00;103467.63;5099895;28;20032;-90
2021/12/16 07:41:25;;;;;;;94.22;45.85;;;;;;;4.81;100.00;103485.28;5098349;28;20715;-88
2021/12/16 07:46:19;;;;;;;88.53;45.30;;;;;;;4.70;100.00;103483.38;5100751;28;20038;-89
2021/12/16 07:48:45;;;;;;;83.30;42.20;;;;;;;4.62;100.00;103477.09;5080551;28;20083;-90
2021/12/16 07:51:11;;;;;;;92.50;43.42;;;;;;;4.63;100.00;103492.06;5081561;28;20031;-89
2021/12/16 07:53:36;;;;;;;90.38;45.00;;;;;;;4.68;100.00;103494.75;5101100;28;20028;-90
2021/12/16 07:56:03;;;;;;;89.40;45.03;;;;;;;4.65;100.00;103505.28;5100136;28;20039;-89
2021/12/16 07:58:28;;;;;;;90.22;45.30;;;;;;;4.66;100.00;103520.25;5088899;28;20108;-90
2021/12/16 08:00:53;;;;;;;86.03;44.65;;;;;;;4.64;100.00;103516.69;5088874;28;20047;-91
2021/12/16 08:03:19;;;;;;;92.50;45.17;;;;;;;4.67;100.00;103520.25;5106922;28;20031;-91
2021/12/16 08:05:51;;;;;;;90.95;45.17;;;;;;;4.66;100.00;103526.41;5086498;28;20031;-90
2021/12/16 08:08:16;;;;;;;86.40;43.22;;;;;;;4.68;100.00;103518.50;5080102;28;20031;-90
2021/12/16 08:10:42;;;;;;;85.10;41.50;;;;;;;4.63;100.00;103526.34;5095654;28;20036;-91
2021/12/16 08:13:07;;;;;;;85.30;42.65;;;;;;;4.60;100.00;103517.50;5103905;28;20078;-91
2021/12/16 08:15:33;;;;;;;83.72;42.60;;;;;;;4.64;100.00;103527.22;5100714;28;20039;-89
2021/12/16 08:17:58;;;;;;;81.35;43.10;;;;;;;4.58;100.00;103528.03;5104291;28;20031;-90
2021/12/16 08:20:24;;;;;;;79.90;41.30;;;;;;;4.63;100.00;103538.66;5084818;28;20046;-90
2021/12/16 08:22:52;;;;;;;84.28;43.30;;;;;;;4.67;100.00;103544.00;5071003;28;20273;-91
2021/12/16 08:25:20;;;;;;;89.57;42.97;;;;;;;4.71;100.00;103542.31;5106038;28;20054;-91
2021/12/16 08:27:47;;;;;;;81.28;41.60;;;;;;;4.69;100.00;103544.94;5104838;28;20525;-91
2021/12/16 08:30:16;;;;;;;84.97;42.47;;;;;;;4.65;100.00;103547.50;5099736;28;20059;-90
2021/12/16 08:32:43;;;;;;;78.30;42.13;;;;;;;4.67;100.00;103548.41;5069280;28;20512;-92
2021/12/16 08:35:09;;;;;;;84.40;43.45;;;;;;;4.56;100.00;103534.16;5091805;28;20483;-91
2021/12/16 08:37:35;;;;;;;92.32;44.15;;;;;;;4.75;100.00;103563.50;5091955;28;20473;-93
2021/12/16 08:40:04;;;;;;;83.55;43.30;;;;;;;4.69;100.00;103546.69;5099567;28;20050;-91
2021/12/16 08:42:32;;;;;;;83.63;43.83;;;;;;;4.80;100.00;103573.22;5095142;28;20078;-90
2021/12/16 08:44:58;;;;;;;82.43;43.05;;;;;;;4.70;100.00;103557.25;5092054;28;20058;-89
2021/12/16 08:47:24;;;;;;;85.28;44.67;;;;;;;4.73;100.00;103561.72;5108676;28;20036;-89
2021/12/16 08:49:50;;;;;;;95.85;47.35;;;;;;;4.78;100.00;103561.78;5094585;28;20313;-84
2021/12/16 08:52:21;;;;;;;89.07;46.92;;;;;;;4.70;100.00;103545.81;5099561;28;20027;-90
2021/12/16 08:54:48;;;;;;;85.53;45.42;;;;;;;4.83;100.00;103562.75;5105187;28;20035;-90
2021/12/16 08:57:14;;;;;;;84.05;45.40;;;;;;;4.83;100.00;103578.56;5105488;28;20097;-89
2021/12/16 08:59:40;;;;;;;90.68;47.53;;;;;;;4.77;100.00;103570.56;5095465;28;20420;-89
2021/12/16 09:02:07;;;;;;;83.63;44.30;;;;;;;4.84;100.00;103585.63;5098422;28;20082;-89
2021/12/16 09:04:33;;;;;;;86.55;45.40;;;;;;;4.84;100.00;103582.97;5103520;28;20040;-89
2021/12/16 09:07:02;;;;;;;93.88;46.83;;;;;;;4.94;100.00;103598.13;5105580;28;20023;-89
2021/12/16 09:09:32;;;;;;;100.15;51.33;;;;;;;5.02;100.00;103585.03;5088576;28;20031;-89
2021/12/16 09:12:05;;;;;;;101.65;48.47;;;;;;;5.07;100.00;103580.72;5105827;28;20028;-89
2021/12/16 09:14:32;;;;;;;106.67;50.73;;;;;;;5.14;100.00;103587.84;5104500;28;20170;-89
2021/12/16 09:16:59;;;;;;;117.30;57.55;;;;;;;5.06;100.00;103566.66;5106030;28;20043;-89
2021/12/16 09:19:24;;;;;;;120.95;55.78;;;;;;;5.32;100.00;103600.47;5105577;28;20027;-88
2021/12/16 09:21:49;;;;;;;129.90;56.28;;;;;;;5.36;100.00;103597.03;5083711;28;20088;-88
2021/12/16 09:24:15;;;;;;;117.70;56.72;;;;;;;5.36;100.00;103605.81;5098831;28;20039;-90
2021/12/16 09:26:45;;;;;;;114.65;53.15;;;;;;;5.38;100.00;103600.56;5106396;28;20038;-88
2021/12/16 09:29:11;;;;;;;117.13;55.45;;;;;;;5.42;100.00;103600.63;5106098;28;20041;-89
2021/12/16 09:31:38;;;;;;;125.47;56.65;;;;;;;5.47;100.00;103596.28;5106146;28;20027;-88
2021/12/16 09:34:07;;;;;;;122.68;57.70;;;;;;;5.59;100.00;103600.84;5081982;28;20032;-88
2021/12/16 09:36:36;;;;;;;125.38;57.60;;;;;;;5.62;100.00;103595.63;5087315;28;20331;-89
2021/12/16 09:39:05;;;;;;;125.97;59.35;;;;;;;5.69;100.00;103602.78;5081432;28;20460;-88
2021/12/16 09:41:30;;;;;;;138.77;61.80;;;;;;;5.78;100.00;103596.72;5084879;28;20032;-89
2021/12/16 09:43:58;;;;;;;154.95;64.85;;;;;;;5.94;100.00;103603.13;5098293;28;20392;-89
2021/12/16 09:46:26;;;;;;;157.90;69.57;;;;;;;6.04;100.00;103598.84;5102970;28;20034;-89
2021/12/16 09:48:52;;;;;;;151.30;67.63;;;;;;;6.11;100.00;103603.34;5085157;28;20434;-87
2021/12/16 09:51:23;;;;;;;148.30;65.43;;;;;;;6.11;100.00;103592.75;5083910;28;20054;-88
2021/12/16 09:53:57;;;;;;;162.57;69.13;;;;;;;6.23;100.00;103606.13;5098385;28;20146;-88
2021/12/16 09:56:23;;;;;;;155.02;67.35;;;;;;;6.15;100.00;103576.94;5084638;28;20055;-88
2021/12/16 09:58:50;;;;;;;134.05;62.95;;;;;;;6.33;100.00;103601.81;5098566;28;20019;-87
2021/12/16 10:01:18;;;;;;;144.68;62.28;;;;;;;6.35;100.00;103605.34;5103827;28;20051;-88
2021/12/16 10:03:46;;;;;;;137.05;63.72;;;;;;;6.34;100.00;103587.72;5099979;28;20071;-87
2021/12/16 10:06:13;;;;;;;129.88;57.03;;;;;;;6.46;100.00;103604.59;5065545;28;20113;-87
2021/12/16 10:08:40;;;;;;;138.88;59.17;;;;;;;6.51;100.00;103606.41;5088518;28;20028;-88
2021/12/16 10:11:06;;;;;;;134.68;60.15;;;;;;;6.58;100.00;103610.91;5083983;28;20035;-88
2021/12/16 10:13:43;;;;;;;126.35;58.22;;;;;;;6.59;100.00;103608.25;5097593;28;20401;-88
2021/12/16 10:18:35;;;;;;;125.78;57.88;;;;;;;6.73;100.00;103603.13;5107871;28;20032;-88
2021/12/16 10:21:05;;;;;;;120.00;56.67;;;;;;;6.75;100.00;103604.00;5089951;28;20035;-88
2021/12/16 10:23:33;;;;;;;112.07;55.15;;;;;;;6.79;100.00;103604.91;5104456;28;20042;-87
2021/12/16 10:26:02;;;;;;;121.32;57.60;;;;;;;6.82;100.00;103608.47;5108459;28;20028;-87
2021/12/16 10:28:31;;;;;;;119.45;56.55;;;;;;;6.93;100.00;103608.56;5107971;28;20134;-88
2021/12/16 10:31:22;;;;;;;112.57;57.67;;;;;;;7.03;100.00;103609.53;5103524;28;20042;-88
2021/12/16 10:34:06;;;;;;;122.63;59.10;;;;;;;7.15;100.00;103610.53;5106501;28;20093;-87
2021/12/16 10:36:40;;;;;;;128.70;60.35;;;;;;;7.52;100.00;103612.53;5089385;28;20320;-87
2021/12/16 10:39:17;;;;;;;118.88;58.35;;;;;;;7.76;100.00;103599.41;5071854;28;20038;-88
2021/12/16 10:41:45;;;;;;;107.35;55.47;;;;;;;7.97;100.00;103596.84;5102532;28;20031;-88
2021/12/16 10:44:20;;;;;;;86.63;47.42;;;;;;;8.02;100.00;103588.91;5108303;28;20111;-88
2021/12/16 10:46:50;;;;;;;79.47;44.38;;;;;;;8.09;100.00;103597.78;5108373;28;20028;-88
2021/12/16 10:49:25;;;;;;;76.20;43.03;;;;;;;8.20;100.00;103604.00;5090114;28;20078;-88
2021/12/16 10:51:54;;;;;;;75.43;41.95;;;;;;;8.34;100.00;103601.38;5105417;28;20398;-88
2021/12/16 10:54:28;;;;;;;72.80;41.33;;;;;;;8.46;100.00;103597.03;5091254;28;20036;-87
2021/12/16 10:57:10;;;;;;;65.95;37.17;;;;;;;8.61;100.00;103600.56;5108608;28;20434;-88
2021/12/16 11:00:10;;;;;;;59.75;34.95;;;;;;;8.64;100.00;103589.97;5105234;28;20376;-88
2021/12/16 11:02:38;;;;;;;58.75;34.20;;;;;;;8.48;100.00;103595.28;5075900;28;20496;-88
2021/12/16 11:05:11;;;;;;;52.95;32.80;;;;;;;8.29;100.00;103593.41;5083495;28;20157;-88
2021/12/16 11:07:49;;;;;;;56.53;33.10;;;;;;;8.17;100.00;103604.00;5081613;28;20028;-88
2021/12/16 11:10:25;;;;;;;61.35;34.20;;;;;;;8.10;100.00;103603.06;5078346;28;20111;-88
2021/12/16 11:13:02;;;;;;;57.03;34.13;;;;;;;7.97;100.00;103606.56;5077468;28;20035;-88
2021/12/16 11:15:33;;;;;;;61.00;36.20;;;;;;;7.95;100.00;103601.28;5081624;28;20059;-89
2021/12/16 11:18:04;;;;;;;63.13;35.63;;;;;;;7.94;100.00;103604.81;5070269;28;20037;-87
2021/12/16 11:20:37;;;;;;;59.55;34.33;;;;;;;7.92;100.00;103614.50;5087671;28;20032;-88
2021/12/16 11:23:15;;;;;;;60.13;33.27;;;;;;;7.94;100.00;103614.50;5081828;28;20028;-87
2021/12/16 11:25:44;;;;;;;56.20;33.20;;;;;;;8.04;100.00;103612.78;5086463;28;20031;-88
2021/12/16 11:28:42;;;;;;;52.72;30.92;;;;;;;8.18;100.00;103617.25;5080482;28;20085;-89
2021/12/16 11:31:09;;;;;;;57.70;31.55;;;;;;;8.38;100.00;103617.34;5060012;28;20048;-89
2021/12/16 11:33:48;;;;;;;56.92;32.42;;;;;;;8.53;100.00;103607.63;5085158;28;20036;-88
2021/12/16 11:36:20;;;;;;;47.55;28.63;;;;;;;8.65;100.00;103610.31;5082460;28;20040;-88
2021/12/16 11:38:59;;;;;;;47.63;27.35;;;;;;;8.78;100.00;103601.50;5073641;28;20031;-88
2021/12/16 11:41:32;;;;;;;38.22;23.85;;;;;;;8.85;99.91;103589.97;5072846;28;20100;-88
2021/12/16 11:44:16;;;;;;;39.70;24.50;;;;;;;9.08;99.76;103605.03;5069540;28;20032;-89
2021/12/16 11:46:53;;;;;;;43.65;27.00;;;;;;;9.26;98.77;103606.78;5078799;28;20035;-88
2021/12/16 11:49:21;;;;;;;38.53;22.67;;;;;;;9.45;97.28;103603.22;5078846;28;20071;-88
2021/12/16 11:51:52;;;;;;;33.10;21.65;;;;;;;9.66;95.99;103602.28;5082135;28;20032;-87
2021/12/16 11:54:34;;;;;;;34.97;21.30;;;;;;;9.88;95.46;103593.31;5079151;28;20557;-89
2021/12/16 11:57:16;;;;;;;32.83;20.20;;;;;;;10.19;95.01;103595.81;5077334;28;20073;-88
2021/12/16 11:59:46;;;;;;;30.50;19.50;;;;;;;10.32;91.53;103600.22;5080589;28;20074;-88
2021/12/16 12:02:37;;;;;;;29.60;18.75;;;;;;;10.54;93.41;103597.44;5095816;28;20055;-87
2021/12/16 12:05:29;;;;;;;32.58;19.30;;;;;;;10.71;91.36;103593.75;5106702;28;20047;-88
2021/12/16 12:07:57;;;;;;;30.80;19.70;;;;;;;10.84;89.51;103596.34;5107290;28;20108;-88
2021/12/16 12:10:38;;;;;;;32.40;19.48;;;;;;;10.91;90.02;103595.34;5086495;28;20028;-88
2021/12/16 12:13:07;;;;;;;26.50;17.10;;;;;;;10.93;87.38;103601.56;5084721;28;20192;-89
2021/12/16 12:15:50;;;;;;;28.40;18.17;;;;;;;10.92;87.62;103595.38;5086439;28;20807;-88
2021/12/16 12:18:31;;;;;;;25.63;18.02;;;;;;;10.84;88.59;103588.34;5087511;28;20039;-89
2021/12/16 12:21:34;;;;;;;25.38;17.33;;;;;;;10.76;89.91;103584.84;5088049;28;20390;-88
2021/12/16 12:24:05;;;;;;;28.23;18.85;;;;;;;10.72;87.95;103590.19;5101012;28;20443;-88
2021/12/16 12:26:35;;;;;;;28.52;18.67;;;;;;;10.59;87.42;103591.19;5108710;28;20055;-88
2021/12/16 12:29:15;;;;;;;24.02;17.67;;;;;;;10.38;88.39;103589.56;5108879;28;20063;-88
2021/12/16 12:31:46;;;;;;;26.40;17.77;;;;;;;10.12;88.56;103583.47;5086148;28;20027;-88
2021/12/16 12:34:13;;;;;;;24.85;15.95;;;;;;;9.93;88.34;103598.63;5106968;28;20122;-87
2021/12/16 12:36:38;;;;;;;24.75;16.30;;;;;;;9.73;88.82;103585.41;5100898;28;20081;-88
2021/12/16 12:39:07;;;;;;;28.42;18.30;;;;;;;9.43;90.21;103571.31;5085801;28;20032;-89
2021/12/16 12:41:33;;;;;;;30.98;16.75;;;;;;;9.36;90.26;103585.50;5082612;28;20392;-89
2021/12/16 12:44:01;;;;;;;45.58;25.08;;;;;;;9.21;91.24;103593.50;5083296;28;20024;-87
2021/12/16 12:46:26;;;;;;;30.38;18.55;;;;;;;9.07;91.88;103582.91;5087895;27;20054;-88
2021/12/16 12:48:53;;;;;;;25.10;15.32;;;;;;;8.95;91.53;103585.56;5118906;27;20039;-88
2021/12/16 12:51:48;;;;;;;27.50;15.02;;;;;;;8.91;92.08;103595.31;5098513;28;20059;-87
2021/12/16 12:54:24;;;;;;;24.88;15.23;;;;;;;8.83;92.14;103602.38;5086113;28;20121;-87
2021/12/16 12:56:53;;;;;;;22.95;14.07;;;;;;;8.80;91.37;103598.84;5095633;27;20038;-89
2021/12/16 12:59:18;;;;;;;22.73;14.32;;;;;;;8.77;91.52;103589.09;5089412;28;20024;-89
2021/12/16 13:01:51;;;;;;;23.27;13.98;;;;;;;8.74;92.03;103583.78;5090767;28;20055;-89
2021/12/16 13:04:24;;;;;;;23.40;14.03;;;;;;;8.71;92.06;103582.00;5085180;28;20082;-89
2021/12/16 13:07:00;;;;;;;23.88;14.27;;;;;;;8.70;92.55;103571.41;5068230;28;20115;-92
2021/12/16 13:09:49;;;;;;;21.55;13.18;;;;;;;8.78;92.25;103582.00;5103549;27;20031;-91
2021/12/16 13:12:21;;;;;;;22.13;13.88;;;;;;;8.78;92.13;103585.56;5078334;28;20031;-91
2021/12/16 13:14:50;;;;;;;23.42;12.95;;;;;;;8.73;91.04;103579.34;5100957;28;20027;-91
2021/12/16 13:23:22;;;;;;;21.75;12.93;;;;;;;8.77;91.14;103580.25;5088938;28;20046;-90
2021/12/16 13:23:37;;;;;;;19.95;11.85;;;;;;;8.90;89.84;103582.91;5102596;28;20120;-90
2021/12/16 13:29:09;;;;;;;17.63;11.88;;;;;;;8.89;90.45;103582.91;5105162;28;20042;-92
2021/12/16 13:34:26;;;;;;;23.30;12.15;;;;;;;8.81;90.27;103582.88;5107057;28;20051;-91
2021/12/16 13:36:56;;;;;;;18.90;12.18;;;;;;;8.72;90.65;103578.47;5107811;28;20030;-92
2021/12/16 13:39:27;;;;;;;17.98;11.75;;;;;;;8.77;90.25;103588.19;5105199;28;20427;-91
2021/12/16 13:41:57;;;;;;;16.20;11.07;;;;;;;8.71;90.38;103575.81;5087457;28;20372;-90
2021/12/16 13:44:57;;;;;;;17.80;10.18;;;;;;;8.75;90.04;103587.34;5087795;28;20034;-89
2021/12/16 14:06:56;;;;;;;14.98;8.10;;;;;;;8.72;87.35;103582.91;5006602;28;20034;-86
2021/12/16 14:09:28;;;;;;;13.38;7.70;;;;;;;8.77;85.94;103596.16;5015871;28;20496;-88